Time;durP1;ratioP1;P1;durP2;ratioP2;P2;SDS_P1;SDS_P2;PMS_P1;PMS_P2;Temp;Humidity;BMP_temperature;BMP_pressure;BME280_temperature;BME280_humidity;BME280_pressure;Samples;Min_cycle;Max_cycle;Signal;HPM_P1;HPM_P2
2022/05/02 00:01:24;;;;;;;;;;;11.90;86.60;;;;;;5053575;28;19939;-88
2022/05/02 00:03:50;;;;;;;;;;;12.00;86.10;;;;;;5053564;28;19927;-88
2022/05/02 00:06:15;;;;;;;;;;;12.10;86.00;;;;;;5053686;28;19934;-88
2022/05/02 00:08:41;;;;;;;;;;;12.10;85.30;;;;;;5053416;28;19909;-88
2022/05/02 00:11:06;;;;;;;;;;;12.00;85.60;;;;;;5053347;28;19950;-88
2022/05/02 00:13:32;;;;;;;;;;;12.10;86.20;;;;;;5053418;28;19909;-88
2022/05/02 00:15:58;;;;;;;;;;;12.00;86.60;;;;;;5053290;28;19943;-88
2022/05/02 00:18:23;;;;;;;;;;;12.00;86.50;;;;;;5052828;28;19961;-88
2022/05/02 00:20:49;;;;;;;;;;;12.00;86.30;;;;;;5053354;28;19953;-88
2022/05/02 00:23:15;;;;;;;;;;;12.10;85.90;;;;;;5053180;28;20339;-88
2022/05/02 00:25:40;;;;;;;;;;;12.20;85.80;;;;;;5069404;28;19933;-88
2022/05/02 00:28:11;;;;;;;;;;;12.20;85.90;;;;;;5073240;28;19977;-88
2022/05/02 00:30:36;;;;;;;;;;;12.20;86.00;;;;;;5073017;28;19966;-88
2022/05/02 00:33:02;;;;;;;;;;;12.20;85.90;;;;;;5073344;28;19965;-89
2022/05/02 00:35:27;;;;;;;;;;;12.20;86.40;;;;;;5073078;28;19922;-88
2022/05/02 00:37:53;;;;;;;;;;;12.20;86.80;;;;;;5072139;28;19972;-88
2022/05/02 00:40:19;;;;;;;;;;;12.10;86.90;;;;;;5073369;28;20341;-88
2022/05/02 00:42:45;;;;;;;;;;;12.20;87.10;;;;;;5073087;28;19922;-88
2022/05/02 00:45:11;;;;;;;;;;;12.20;87.00;;;;;;5057883;28;19950;-88
2022/05/02 00:47:37;;;;;;;;;;;12.20;87.20;;;;;;5052983;28;20316;-88
2022/05/02 00:50:03;;;;;;;;;;;12.30;87.10;;;;;;5052909;28;20003;-88
2022/05/02 00:52:29;;;;;;;;;;;12.20;86.80;;;;;;5052968;28;19931;-88
2022/05/02 00:54:54;;;;;;;;;;;12.30;86.40;;;;;;5052925;28;19958;-88
2022/05/02 00:57:20;;;;;;;;;;;12.30;86.20;;;;;;5052950;28;20291;-89
2022/05/02 00:59:45;;;;;;;;;;;12.40;86.40;;;;;;5053169;28;20107;-88
2022/05/02 01:02:12;;;;;;;;;;;12.40;86.80;;;;;;5053140;28;20473;-88
2022/05/02 01:04:38;;;;;;;;;;;12.40;87.00;;;;;;5063646;28;20384;-88
2022/05/02 01:07:10;;;;;;;;;;;12.40;87.30;;;;;;5072876;28;19983;-89
2022/05/02 01:09:41;;;;;;;;;;;12.40;87.40;;;;;;5072320;28;20404;-88
2022/05/02 01:12:17;;;;;;;;;;;12.40;87.20;;;;;;5072782;28;19956;-89
2022/05/02 01:14:45;;;;;;;;;;;12.40;87.30;;;;;;5072834;28;19969;-88
2022/05/02 01:17:10;;;;;;;;;;;12.40;87.50;;;;;;5073112;28;19943;-88
2022/05/02 01:19:36;;;;;;;;;;;12.40;87.60;;;;;;5072989;28;19966;-89
2022/05/02 01:22:02;;;;;;;;;;;12.40;87.40;;;;;;5072741;28;20355;-88
2022/05/02 01:24:32;;;;;;;;;;;12.40;86.70;;;;;;5072678;28;20047;-88
2022/05/02 01:26:58;;;;;;;;;;;12.40;85.40;;;;;;5054622;28;19955;-89
2022/05/02 01:29:24;;;;;;;;;;;12.40;85.40;;;;;;5053901;28;19954;-88
2022/05/02 01:31:49;;;;;;;;;;;12.40;85.50;;;;;;5056250;28;19965;-88
2022/05/02 01:34:15;;;;;;;;;;;12.40;85.80;;;;;;5056366;28;19915;-88
2022/05/02 01:36:43;;;;;;;;;;;12.40;86.40;;;;;;5056575;28;19964;-88
2022/05/02 01:39:08;;;;;;;;;;;12.30;87.00;;;;;;5056509;28;19923;-88
2022/05/02 01:41:34;;;;;;;;;;;12.30;87.20;;;;;;5056191;28;19956;-88
2022/05/02 01:43:59;;;;;;;;;;;12.30;87.60;;;;;;5056231;28;20371;-88
2022/05/02 01:46:25;;;;;;;;;;;12.30;87.30;;;;;;5066191;28;20028;-88
2022/05/02 01:48:50;;;;;;;;;;;12.20;87.70;;;;;;5076108;28;19909;-88
2022/05/02 01:51:16;;;;;;;;;;;12.40;87.70;;;;;;5075978;28;20408;-88
2022/05/02 01:53:42;;;;;;;;;;;12.40;87.40;;;;;;5076016;28;20412;-88
2022/05/02 01:56:07;;;;;;;;;;;12.40;87.40;;;;;;5075984;28;19908;-88
2022/05/02 01:58:33;;;;;;;;;;;12.40;87.20;;;;;;5075911;28;20489;-88
2022/05/02 02:00:59;;;;;;;;;;;12.40;87.00;;;;;;5075964;28;19959;-88
2022/05/02 02:03:24;;;;;;;;;;;12.50;86.90;;;;;;5075517;28;20255;-88
2022/05/02 02:05:50;;;;;;;;;;;12.50;86.70;;;;;;5075517;28;19965;-88
2022/05/02 02:08:26;;;;;;;;;;;12.50;87.30;;;;;;5059873;28;19916;-88
2022/05/02 02:10:53;;;;;;;;;;;12.50;87.60;;;;;;5064123;28;19951;-88
2022/05/02 02:13:19;;;;;;;;;;;12.40;87.30;;;;;;5075555;28;19955;-88
2022/05/02 02:15:45;;;;;;;;;;;12.50;87.10;;;;;;5075639;28;19973;-89
2022/05/02 02:18:11;;;;;;;;;;;12.50;86.90;;;;;;5075572;28;19927;-88
2022/05/02 02:20:37;;;;;;;;;;;12.50;86.90;;;;;;5075526;28;19919;-88
2022/05/02 02:23:03;;;;;;;;;;;12.50;87.10;;;;;;5075431;28;20372;-88
2022/05/02 02:25:29;;;;;;;;;;;12.50;87.40;;;;;;5075287;28;20033;-88
2022/05/02 02:27:54;;;;;;;;;;;12.50;87.60;;;;;;5075206;28;19965;-88
2022/05/02 02:30:20;;;;;;;;;;;12.40;87.80;;;;;;5055057;28;19966;-88
2022/05/02 02:32:45;;;;;;;;;;;12.40;88.10;;;;;;5055184;28;19969;-88
2022/05/02 02:35:11;;;;;;;;;;;12.30;88.40;;;;;;5055254;28;20009;-88
2022/05/02 02:37:37;;;;;;;;;;;12.10;88.70;;;;;;5055167;28;19954;-88
2022/05/02 02:40:03;;;;;;;;;;;12.00;88.90;;;;;;5054718;28;19961;-87
2022/05/02 02:42:28;;;;;;;;;;;12.00;89.30;;;;;;5055060;28;19919;-88
2022/05/02 02:44:54;;;;;;;;;;;11.90;89.00;;;;;;5055110;28;19916;-88
2022/05/02 02:47:20;;;;;;;;;;;11.90;88.30;;;;;;5054957;28;20286;-88
2022/05/02 02:49:45;;;;;;;;;;;11.90;88.10;;;;;;5054953;28;20278;-88
2022/05/02 02:52:11;;;;;;;;;;;11.90;88.40;;;;;;5059996;28;20047;-88
2022/05/02 02:54:36;;;;;;;;;;;11.90;88.50;;;;;;5072758;28;20021;-88
2022/05/02 02:57:02;;;;;;;;;;;12.00;88.70;;;;;;5074793;28;19945;-88
2022/05/02 02:59:28;;;;;;;;;;;12.00;88.70;;;;;;5074916;28;20064;-88
2022/05/02 03:01:56;;;;;;;;;;;12.10;88.90;;;;;;5074621;28;19929;-88
2022/05/02 03:07:05;;;;;;;;;;;12.30;88.40;;;;;;5073522;28;19918;-88
2022/05/02 03:09:31;;;;;;;;;;;12.40;88.10;;;;;;5072248;28;19947;-88
2022/05/02 03:11:57;;;;;;;;;;;12.40;88.20;;;;;;5073016;28;20053;-88
2022/05/02 03:14:23;;;;;;;;;;;12.40;87.90;;;;;;5074143;28;20022;-88
2022/05/02 03:16:48;;;;;;;;;;;12.50;87.80;;;;;;5073310;28;20433;-88
2022/05/02 03:19:14;;;;;;;;;;;12.50;88.00;;;;;;5073438;28;20506;-88
2022/05/02 03:21:39;;;;;;;;;;;12.50;88.10;;;;;;5073784;28;19909;-88
2022/05/02 03:24:05;;;;;;;;;;;12.50;88.20;;;;;;5074100;28;20037;-88
2022/05/02 03:26:31;;;;;;;;;;;12.50;88.20;;;;;;5074242;28;19995;-88
2022/05/02 03:28:57;;;;;;;;;;;12.50;88.20;;;;;;5074016;28;19920;-88
2022/05/02 03:31:22;;;;;;;;;;;12.50;88.00;;;;;;5071782;28;19924;-88
2022/05/02 03:33:48;;;;;;;;;;;12.50;88.00;;;;;;5053922;28;20504;-88
2022/05/02 03:36:13;;;;;;;;;;;12.50;88.00;;;;;;5054012;28;20377;-88
2022/05/02 03:38:39;;;;;;;;;;;12.40;88.10;;;;;;5054011;28;20433;-88
2022/05/02 03:41:04;;;;;;;;;;;12.40;88.20;;;;;;5054001;28;19983;-88
2022/05/02 03:43:31;;;;;;;;;;;12.40;88.00;;;;;;5054197;28;19970;-88
2022/05/02 03:45:57;;;;;;;;;;;12.30;88.00;;;;;;5053914;28;19958;-88
2022/05/02 03:48:22;;;;;;;;;;;12.30;88.20;;;;;;5053821;28;20482;-88
2022/05/02 03:50:48;;;;;;;;;;;12.20;88.70;;;;;;5053906;28;19962;-88
2022/05/02 03:53:15;;;;;;;;;;;12.10;89.30;;;;;;5053048;28;19913;-88
2022/05/02 03:55:42;;;;;;;;;;;12.00;89.60;;;;;;5053671;28;20373;-88
2022/05/02 03:58:08;;;;;;;;;;;12.00;89.50;;;;;;5067210;28;19958;-88
2022/05/02 04:00:34;;;;;;;;;;;12.00;89.30;;;;;;5073668;28;19938;-88
2022/05/02 04:03:00;;;;;;;;;;;12.10;89.30;;;;;;5073597;28;20003;-88
2022/05/02 04:05:25;;;;;;;;;;;12.10;89.30;;;;;;5073580;28;19942;-88
2022/05/02 04:07:51;;;;;;;;;;;12.20;89.30;;;;;;5073495;28;19929;-88
2022/05/02 04:10:16;;;;;;;;;;;12.10;89.40;;;;;;5073312;28;19965;-88
2022/05/02 04:12:42;;;;;;;;;;;12.20;89.30;;;;;;5073483;28;19963;-88
2022/05/02 04:15:11;;;;;;;;;;;12.20;89.20;;;;;;5073399;28;19966;-88
2022/05/02 04:17:37;;;;;;;;;;;12.20;89.10;;;;;;5073415;28;19999;-88
2022/05/02 04:20:03;;;;;;;;;;;12.20;89.00;;;;;;5054995;28;20008;-88
2022/05/02 04:22:29;;;;;;;;;;;12.10;89.60;;;;;;5053277;28;19926;-88
2022/05/02 04:24:54;;;;;;;;;;;12.00;89.90;;;;;;5053227;28;20401;-88
2022/05/02 04:27:20;;;;;;;;;;;12.00;90.10;;;;;;5053230;28;20344;-87
2022/05/02 04:29:45;;;;;;;;;;;11.90;90.20;;;;;;5079880;22;19979;-87
2022/05/02 04:32:11;;;;;;;;;;;11.90;90.40;;;;;;5093150;28;20041;-88
2022/05/02 04:34:36;;;;;;;;;;;11.90;90.60;;;;;;5093318;28;19973;-88
2022/05/02 04:37:02;;;;;;;;;;;11.90;90.50;;;;;;5093113;28;20349;-88
2022/05/02 04:39:28;;;;;;;;;;;11.80;90.70;;;;;;5093294;28;19948;-87
2022/05/02 04:41:53;;;;;;;;;;;11.70;91.00;;;;;;5093225;28;20300;-88
2022/05/02 04:44:19;;;;;;;;;;;11.80;91.10;;;;;;5092980;28;19981;-87
2022/05/02 04:46:44;;;;;;;;;;;11.80;91.30;;;;;;5093103;28;20325;-87
2022/05/02 04:49:10;;;;;;;;;;;11.80;90.90;;;;;;5093176;28;20416;-87
2022/05/02 04:51:35;;;;;;;;;;;11.80;90.90;;;;;;5092887;28;19969;-87
2022/05/02 04:54:01;;;;;;;;;;;11.90;90.60;;;;;;5091978;28;20306;-88
2022/05/02 04:56:26;;;;;;;;;;;12.00;89.40;;;;;;5096645;28;19934;-87
2022/05/02 04:58:52;;;;;;;;;;;12.20;88.70;;;;;;5093110;28;19908;-88
2022/05/02 05:25:20;;;;;;;;;;;12.30;87.70;;;;;;5111217;27;19926;-88
2022/05/02 05:29:26;;;;;;;;;;;12.90;86.80;;;;;;5102802;27;19955;-89
2022/05/02 05:31:55;;;;;;;;;;;13.00;86.90;;;;;;5101801;28;20294;-89
2022/05/02 05:34:23;;;;;;;;;;;13.00;86.90;;;;;;5114314;28;19926;-87
2022/05/02 05:40:05;;;;;;;;;;;13.10;85.90;;;;;;5104465;27;19969;-89
2022/05/02 05:43:04;;;;;;;;;;;13.10;86.20;;;;;;5091491;28;19956;-89
2022/05/02 05:45:38;;;;;;;;;;;13.00;86.40;;;;;;5064230;28;19957;-89
2022/05/02 05:48:13;;;;;;;;;;;13.00;87.00;;;;;;5097413;28;19930;-89
2022/05/02 05:50:41;;;;;;;;;;;13.00;86.50;;;;;;5093403;28;20051;-89
2022/05/02 05:53:25;;;;;;;;;;;13.00;86.00;;;;;;5093018;28;20005;-89
2022/05/02 05:56:00;;;;;;;;;;;13.10;86.80;;;;;;5088948;28;19958;-88
2022/05/02 05:58:26;;;;;;;;;;;13.10;86.50;;;;;;5121918;28;19999;-89
2022/05/02 06:01:00;;;;;;;;;;;13.10;85.60;;;;;;5093330;28;19955;-89
2022/05/02 06:03:30;;;;;;;;;;;13.30;84.60;;;;;;5089936;28;20043;-89
2022/05/02 06:05:56;;;;;;;;;;;13.40;83.60;;;;;;5090346;28;19964;-88
2022/05/02 06:08:22;;;;;;;;;;;13.60;82.80;;;;;;5091146;28;19957;-89
2022/05/02 06:10:49;;;;;;;;;;;13.80;82.30;;;;;;5078668;28;19980;-89
2022/05/02 06:13:16;;;;;;;;;;;13.90;81.60;;;;;;5094282;28;20008;-88
2022/05/02 06:18:30;;;;;;;;;;;14.20;80.90;;;;;;5080321;28;20455;-89
2022/05/02 06:20:59;;;;;;;;;;;14.40;80.80;;;;;;5077500;28;20421;-89
2022/05/02 06:23:27;;;;;;;;;;;14.50;80.30;;;;;;5086217;28;20049;-89
2022/05/02 06:25:53;;;;;;;;;;;14.60;79.00;;;;;;5081620;28;19969;-89
2022/05/02 06:28:21;;;;;;;;;;;14.70;78.60;;;;;;5085323;28;20433;-88
2022/05/02 06:30:49;;;;;;;;;;;14.70;79.20;;;;;;5088756;28;19960;-88
2022/05/02 06:33:15;;;;;;;;;;;14.60;79.40;;;;;;5083098;28;20043;-88
2022/05/02 06:35:40;;;;;;;;;;;14.50;79.60;;;;;;5084168;28;20070;-88
2022/05/02 06:38:12;;;;;;;;;;;14.60;79.80;;;;;;5081179;28;20467;-89
2022/05/02 06:40:57;;;;;;;;;;;14.70;79.80;;;;;;5088094;28;19964;-89
2022/05/02 06:43:28;;;;;;;;;;;14.90;79.40;;;;;;5088593;28;19976;-89
2022/05/02 06:46:03;;;;;;;;;;;15.00;78.60;;;;;;5072803;28;19965;-89
2022/05/02 06:48:31;;;;;;;;;;;15.20;77.40;;;;;;5080024;28;19999;-89
2022/05/02 06:51:01;;;;;;;;;;;15.30;76.60;;;;;;5073311;28;19958;-89
2022/05/02 06:53:39;;;;;;;;;;;15.50;76.10;;;;;;5078109;28;19951;-89
2022/05/02 06:56:21;;;;;;;;;;;15.70;75.00;;;;;;5058643;28;19951;-89
2022/05/02 06:58:49;;;;;;;;;;;15.80;74.60;;;;;;5062487;28;19966;-89
2022/05/02 07:01:17;;;;;;;;;;;16.00;74.40;;;;;;5071643;28;20057;-89
2022/05/02 07:04:00;;;;;;;;;;;16.10;74.20;;;;;;5073635;28;19951;-90
2022/05/02 07:06:32;;;;;;;;;;;16.10;73.70;;;;;;5068338;28;19954;-89
2022/05/02 07:09:27;;;;;;;;;;;16.00;71.90;;;;;;5107670;27;19972;-89
2022/05/02 07:12:11;;;;;;;;;;;16.00;73.00;;;;;;5089742;28;19939;-89
2022/05/02 07:14:55;;;;;;;;;;;16.00;71.20;;;;;;5094516;28;19966;-89
2022/05/02 07:17:31;;;;;;;;;;;16.00;71.00;;;;;;5089211;28;20049;-90
2022/05/02 07:20:07;;;;;;;;;;;16.10;71.80;;;;;;5088158;28;20091;-89
2022/05/02 07:22:34;;;;;;;;;;;16.30;71.00;;;;;;5089669;28;20555;-90
2022/05/02 07:24:59;;;;;;;;;;;16.60;71.00;;;;;;5089240;28;19942;-89
2022/05/02 07:27:31;;;;;;;;;;;16.80;70.40;;;;;;5089480;28;19949;-89
2022/05/02 07:29:57;;;;;;;;;;;16.80;69.90;;;;;;5086895;28;19927;-89
2022/05/02 07:32:24;;;;;;;;;;;17.00;68.20;;;;;;5081944;28;19975;-90
2022/05/02 07:34:51;;;;;;;;;;;17.20;66.70;;;;;;5089473;28;19962;-89
2022/05/02 07:37:19;;;;;;;;;;;17.30;66.90;;;;;;5087089;28;19935;-90
2022/05/02 07:39:45;;;;;;;;;;;17.40;68.10;;;;;;5081046;28;20065;-89
2022/05/02 07:42:12;;;;;;;;;;;17.50;65.10;;;;;;5089337;28;20024;-90
2022/05/02 07:44:38;;;;;;;;;;;17.60;66.20;;;;;;5086835;28;19988;-89
2022/05/02 07:47:07;;;;;;;;;;;17.80;64.40;;;;;;5087354;28;20067;-89
2022/05/02 07:49:33;;;;;;;;;;;17.80;63.00;;;;;;5086666;28;19977;-89
2022/05/02 07:52:00;;;;;;;;;;;17.80;63.40;;;;;;5085033;28;20436;-90
2022/05/02 07:54:27;;;;;;;;;;;17.60;63.90;;;;;;5086731;28;19953;-89
2022/05/02 07:56:57;;;;;;;;;;;17.30;63.10;;;;;;5095506;28;19912;-89
2022/05/02 07:59:29;;;;;;;;;;;17.30;63.20;;;;;;5083848;28;19972;-89
2022/05/02 08:01:56;;;;;;;;;;;17.30;63.00;;;;;;5087118;28;20401;-89
2022/05/02 08:04:21;;;;;;;;;;;17.40;64.80;;;;;;5090925;28;19952;-90
2022/05/02 08:06:50;;;;;;;;;;;17.60;64.90;;;;;;5091468;28;19929;-90
2022/05/02 08:09:24;;;;;;;;;;;17.80;63.00;;;;;;5087607;28;20446;-89
2022/05/02 08:11:59;;;;;;;;;;;17.90;62.60;;;;;;5088859;28;19959;-89
2022/05/02 08:14:30;;;;;;;;;;;18.10;62.80;;;;;;5085384;28;19978;-89
2022/05/02 08:17:02;;;;;;;;;;;18.30;63.80;;;;;;5087953;28;19984;-90
2022/05/02 08:19:38;;;;;;;;;;;18.40;63.00;;;;;;5083633;28;19932;-90
2022/05/02 08:27:45;;;;;;;;;;;18.40;60.20;;;;;;5072997;28;19963;-90
2022/05/02 08:30:17;;;;;;;;;;;18.50;60.80;;;;;;5074380;28;19923;-89
2022/05/02 08:32:46;;;;;;;;;;;18.50;60.30;;;;;;5072413;28;19947;-90
2022/05/02 08:40:36;;;;;;;;;;;18.60;60.20;;;;;;5098523;27;20419;-89
2022/05/02 08:43:20;;;;;;;;;;;18.10;61.20;;;;;;5090470;28;20196;-91
2022/05/02 08:50:57;;;;;;;;;;;18.10;63.50;;;;;;5101400;27;19920;-90
2022/05/02 08:53:41;;;;;;;;;;;18.10;62.60;;;;;;5089829;28;19930;-90
2022/05/02 08:56:24;;;;;;;;;;;18.10;61.20;;;;;;5090074;28;19946;-90
2022/05/02 08:58:55;;;;;;;;;;;18.20;59.70;;;;;;5099864;28;19944;-90
2022/05/02 09:01:35;;;;;;;;;;;18.30;60.80;;;;;;5091735;28;19912;-90
2022/05/02 09:04:03;;;;;;;;;;;18.30;59.70;;;;;;5089732;28;20002;-89
2022/05/02 09:06:49;;;;;;;;;;;18.30;62.40;;;;;;5092507;28;19935;-90
2022/05/02 09:09:14;;;;;;;;;;;18.40;59.40;;;;;;5082732;28;20001;-90
2022/05/02 09:11:46;;;;;;;;;;;18.50;65.40;;;;;;5089396;28;20326;-90
2022/05/02 09:14:11;;;;;;;;;;;18.60;62.80;;;;;;5086689;28;20247;-91
2022/05/02 09:16:55;;;;;;;;;;;18.70;62.50;;;;;;5087220;28;19942;-89
2022/05/02 09:19:24;;;;;;;;;;;18.80;59.60;;;;;;5079337;28;19980;-90
2022/05/02 09:22:05;;;;;;;;;;;18.70;59.70;;;;;;5075866;28;19923;-90
2022/05/02 09:24:34;;;;;;;;;;;18.50;59.40;;;;;;5078979;28;20012;-90
2022/05/02 09:27:13;;;;;;;;;;;18.50;60.00;;;;;;5081067;28;21175;-90
2022/05/02 09:29:51;;;;;;;;;;;18.40;62.60;;;;;;5082692;28;19946;-89
2022/05/02 09:32:16;;;;;;;;;;;18.40;61.50;;;;;;5101270;28;19926;-90
2022/05/02 09:34:58;;;;;;;;;;;18.70;58.40;;;;;;5084925;28;20305;-89
2022/05/02 09:37:26;;;;;;;;;;;18.80;56.90;;;;;;5083821;28;19912;-90
2022/05/02 09:39:58;;;;;;;;;;;18.80;56.90;;;;;;5082300;28;19967;-89
2022/05/02 09:42:40;;;;;;;;;;;18.90;59.30;;;;;;5088849;28;19955;-89
2022/05/02 09:50:45;;;;;;;;;;;19.40;55.70;;;;;;5087215;28;19967;-89
2022/05/02 09:53:34;;;;;;;;;;;19.30;56.90;;;;;;5104365;28;20484;-89
2022/05/02 09:58:56;;;;;;;;;;;19.30;58.70;;;;;;5081971;28;19985;-90
2022/05/02 10:01:22;;;;;;;;;;;19.60;55.80;;;;;;5079730;28;19949;-90
2022/05/02 10:56:09;;;;;;;;;;;19.80;55.40;;;;;;5110699;27;20402;-88
2022/05/02 11:02:10;;;;;;;;;;;21.50;51.60;;;;;;5110339;27;19912;-88
2022/05/02 11:04:41;;;;;;;;;;;21.70;50.40;;;;;;5110952;28;20457;-88
2022/05/02 11:07:08;;;;;;;;;;;21.90;48.00;;;;;;5098171;28;19920;-88
2022/05/02 11:09:52;;;;;;;;;;;22.10;46.20;;;;;;5110704;28;20380;-88
2022/05/02 11:12:21;;;;;;;;;;;22.30;45.00;;;;;;5110892;28;19908;-88
2022/05/02 11:14:54;;;;;;;;;;;22.40;48.30;;;;;;5110700;28;19908;-88
2022/05/02 11:17:20;;;;;;;;;;;22.40;46.10;;;;;;5096129;28;19909;-88
2022/05/02 11:22:42;;;;;;;;;;;22.90;51.60;;;;;;5103133;28;19915;-89
2022/05/02 11:25:15;;;;;;;;;;;23.30;46.10;;;;;;5091100;28;19912;-89
2022/05/02 11:28:00;;;;;;;;;;;23.40;42.80;;;;;;5090084;28;19939;-88
2022/05/02 11:30:29;;;;;;;;;;;23.30;43.70;;;;;;5091164;28;19934;-88
2022/05/02 11:36:44;;;;;;;;;;;23.40;42.50;;;;;;5114224;27;19916;-88
2022/05/02 11:44:12;;;;;;;;;;;23.00;43.20;;;;;;5107681;27;19916;-88
2022/05/02 11:46:43;;;;;;;;;;;22.90;46.30;;;;;;5099896;28;19957;-88
2022/05/02 11:49:18;;;;;;;;;;;23.40;45.80;;;;;;5121080;28;19912;-88
2022/05/02 11:51:45;;;;;;;;;;;23.90;46.00;;;;;;5089359;28;20013;-88
2022/05/02 11:54:29;;;;;;;;;;;24.30;43.90;;;;;;5107162;28;19916;-88
2022/05/02 11:57:14;;;;;;;;;;;24.60;40.90;;;;;;5106453;28;19911;-88
2022/05/02 11:59:58;;;;;;;;;;;24.50;41.80;;;;;;5105912;28;19919;-88
2022/05/02 12:02:30;;;;;;;;;;;24.30;41.40;;;;;;5118505;28;19927;-88
2022/05/02 12:04:56;;;;;;;;;;;24.30;41.70;;;;;;5097693;28;20361;-88
2022/05/02 12:07:28;;;;;;;;;;;24.30;41.90;;;;;;5109299;28;19962;-89
2022/05/02 12:10:05;;;;;;;;;;;24.20;41.10;;;;;;5128402;27;19911;-88
2022/05/02 12:12:31;;;;;;;;;;;24.00;40.80;;;;;;5143194;27;19911;-88
2022/05/02 12:15:04;;;;;;;;;;;23.90;41.60;;;;;;5136380;27;19918;-88
2022/05/02 12:17:30;;;;;;;;;;;24.00;42.50;;;;;;5120101;27;19911;-88
2022/05/02 12:21:29;;;;;;;;;;;24.70;41.00;;;;;;5129878;27;19949;-88
2022/05/02 12:27:19;;;;;;;;;;;24.70;39.10;;;;;;5116262;27;19927;-88
2022/05/02 12:31:42;;;;;;;;;;;25.30;37.90;;;;;;5114193;27;19916;-88
2022/05/02 12:34:09;;;;;;;;;;;25.60;37.50;;;;;;5107931;28;20019;-88
2022/05/02 12:36:37;;;;;;;;;;;25.50;37.30;;;;;;5109355;28;19938;-89
2022/05/02 12:39:04;;;;;;;;;;;25.80;36.10;;;;;;5122864;28;20002;-89
2022/05/02 12:41:39;;;;;;;;;;;26.20;35.50;;;;;;5116445;28;19919;-88
2022/05/02 12:44:08;;;;;;;;;;;26.60;35.40;;;;;;5107387;28;19918;-88
2022/05/02 12:46:38;;;;;;;;;;;26.60;36.10;;;;;;5109001;28;19912;-89
2022/05/02 12:49:04;;;;;;;;;;;27.80;34.30;;;;;;5105961;28;19977;-89
2022/05/02 12:51:30;;;;;;;;;;;29.20;32.20;;;;;;5109982;28;19916;-89
2022/05/02 12:54:13;;;;;;;;;;;29.90;30.20;;;;;;5118927;28;20373;-89
2022/05/02 13:00:30;;;;;;;;;;;30.80;30.80;;;;;;5110000;28;19999;-89
2022/05/02 13:02:30;;;;;;;;;;;31.90;27.40;;;;;;5104669;28;19958;-89
2022/05/02 13:09:21;;;;;;;;;;;32.50;27.20;;;;;;5108666;27;19916;-89
2022/05/02 13:13:46;;;;;;;;;;;33.10;29.40;;;;;;5087449;27;2016795;-89
2022/05/02 13:16:58;;;;;;;;;;;31.60;30.80;;;;;;5111087;27;19927;-89
2022/05/02 13:19:34;;;;;;;;;;;31.60;29.20;;;;;;5091797;28;19951;-90
2022/05/02 13:21:59;;;;;;;;;;;32.70;28.30;;;;;;5088268;28;20416;-89
2022/05/02 13:27:08;;;;;;;;;;;33.60;27.40;;;;;;5106689;27;19923;-89
2022/05/02 13:29:37;;;;;;;;;;;34.40;24.70;;;;;;5100570;28;19912;-89
2022/05/02 13:32:03;;;;;;;;;;;34.50;25.10;;;;;;5106489;28;19916;-89
2022/05/02 13:34:35;;;;;;;;;;;34.80;25.60;;;;;;5115086;28;20361;-89
2022/05/02 13:37:03;;;;;;;;;;;34.30;24.50;;;;;;5111715;28;20409;-89
2022/05/02 13:39:49;;;;;;;;;;;33.60;26.50;;;;;;5098400;28;19920;-89
2022/05/02 13:42:21;;;;;;;;;;;33.70;25.60;;;;;;5100365;27;19913;-89
2022/05/02 13:44:52;;;;;;;;;;;34.40;23.50;;;;;;5103329;28;19920;-89
2022/05/02 13:47:20;;;;;;;;;;;35.60;21.90;;;;;;5111332;28;20011;-89
2022/05/02 13:49:52;;;;;;;;;;;36.00;22.90;;;;;;5097291;28;19916;-89
2022/05/02 13:52:29;;;;;;;;;;;36.40;22.60;;;;;;5091819;28;19920;-89
2022/05/02 13:54:54;;;;;;;;;;;36.20;23.20;;;;;;5104041;28;20018;-89
2022/05/02 13:57:35;;;;;;;;;;;37.00;21.70;;;;;;5109349;28;19926;-89
2022/05/02 14:02:57;;;;;;;;;;;37.10;20.10;;;;;;5102771;28;20022;-89
2022/05/02 14:05:35;;;;;;;;;;;38.10;19.40;;;;;;5092585;28;20011;-89
2022/05/02 14:08:02;;;;;;;;;;;38.40;19.10;;;;;;5107213;28;19912;-90
2022/05/02 14:10:29;;;;;;;;;;;38.50;19.90;;;;;;5099788;28;19916;-90
2022/05/02 14:12:55;;;;;;;;;;;38.80;19.30;;;;;;5097898;28;20390;-89
2022/05/02 14:15:22;;;;;;;;;;;38.20;19.50;;;;;;5095861;28;19948;-90
2022/05/02 14:17:55;;;;;;;;;;;37.00;22.10;;;;;;5095904;28;20010;-89
2022/05/02 14:20:28;;;;;;;;;;;36.20;22.70;;;;;;5103974;28;19963;-89
2022/05/02 14:23:02;;;;;;;;;;;35.60;22.70;;;;;;5099157;28;19913;-89
2022/05/02 14:25:34;;;;;;;;;;;34.20;24.20;;;;;;5105442;28;20060;-89
2022/05/02 14:28:12;;;;;;;;;;;34.50;24.70;;;;;;5105723;28;20012;-89
2022/05/02 14:30:41;;;;;;;;;;;34.70;24.30;;;;;;5097255;28;19920;-89
2022/05/02 14:33:33;;;;;;;;;;;34.90;24.10;;;;;;5099902;28;19919;-89
2022/05/02 14:35:59;;;;;;;;;;;34.40;24.30;;;;;;5102973;28;20420;-89
2022/05/02 14:38:25;;;;;;;;;;;33.90;23.30;;;;;;5088278;28;19912;-89
2022/05/02 14:40:52;;;;;;;;;;;33.40;24.20;;;;;;5095895;28;19993;-89
2022/05/02 14:43:18;;;;;;;;;;;33.10;24.90;;;;;;5093088;28;19919;-89
2022/05/02 14:45:44;;;;;;;;;;;32.20;26.80;;;;;;5095744;28;19916;-89
2022/05/02 14:48:11;;;;;;;;;;;32.70;26.30;;;;;;5084070;28;19912;-89
2022/05/02 14:51:00;;;;;;;;;;;34.50;23.30;;;;;;5083924;28;19913;-90
2022/05/02 14:53:27;;;;;;;;;;;35.20;23.20;;;;;;5092565;28;19919;-89
2022/05/02 14:55:54;;;;;;;;;;;35.20;24.10;;;;;;5080715;28;20358;-89
2022/05/02 14:59:44;;;;;;;;;;;34.60;23.30;;;;;;5107134;27;19916;-89
2022/05/02 15:02:25;;;;;;;;;;;34.20;25.60;;;;;;5103777;27;20282;-89
2022/05/02 15:07:04;;;;;;;;;;;33.70;24.10;;;;;;5112775;27;19934;-90
2022/05/02 15:14:31;;;;;;;;;;;34.20;23.20;;;;;;5108591;27;19923;-89
2022/05/02 15:22:25;;;;;;;;;;;32.70;24.90;;;;;;5103481;27;20295;-90
2022/05/02 15:25:12;;;;;;;;;;;30.70;29.20;;;;;;5104566;28;19920;-89
2022/05/02 15:36:46;;;;;;;;;;;27.60;31.80;;;;;;5105529;28;19919;-89
2022/05/02 15:39:24;;;;;;;;;;;28.00;31.60;;;;;;5094598;28;19965;-89
2022/05/02 15:41:51;;;;;;;;;;;28.20;31.40;;;;;;5097440;28;19918;-89
2022/05/02 15:44:18;;;;;;;;;;;27.40;33.30;;;;;;5094351;28;19912;-89
2022/05/02 15:46:45;;;;;;;;;;;26.80;34.30;;;;;;5097072;28;19927;-89
2022/05/02 15:49:14;;;;;;;;;;;26.30;35.10;;;;;;5095082;28;19916;-90
2022/05/02 15:51:44;;;;;;;;;;;25.70;35.80;;;;;;5095577;28;19955;-90
2022/05/02 15:54:18;;;;;;;;;;;25.40;37.10;;;;;;5103222;28;19919;-89
2022/05/02 15:57:02;;;;;;;;;;;25.20;36.90;;;;;;5096900;28;20404;-89
2022/05/02 15:59:28;;;;;;;;;;;24.80;38.60;;;;;;5092263;28;20294;-89
2022/05/02 16:01:55;;;;;;;;;;;24.50;44.30;;;;;;5086509;28;20378;-89
2022/05/02 16:04:34;;;;;;;;;;;24.00;49.50;;;;;;5105260;28;20362;-89
2022/05/02 16:07:00;;;;;;;;;;;23.40;50.00;;;;;;5105872;28;19916;-89
2022/05/02 16:12:18;;;;;;;;;;;22.60;53.50;;;;;;5080965;28;19974;-89
2022/05/02 16:14:47;;;;;;;;;;;22.20;55.30;;;;;;5081360;28;19923;-90
2022/05/02 16:17:14;;;;;;;;;;;21.90;55.10;;;;;;5079352;28;19913;-89
2022/05/02 16:19:42;;;;;;;;;;;21.70;55.80;;;;;;5080934;28;19966;-89
2022/05/02 16:22:13;;;;;;;;;;;21.50;55.70;;;;;;5089485;28;19912;-89
2022/05/02 16:24:42;;;;;;;;;;;21.40;57.10;;;;;;5088514;28;19912;-89
2022/05/02 16:27:18;;;;;;;;;;;21.30;57.30;;;;;;5085014;28;19927;-89
2022/05/02 16:29:59;;;;;;;;;;;21.20;57.80;;;;;;5088553;28;19999;-89
2022/05/02 16:32:25;;;;;;;;;;;21.10;56.80;;;;;;5084211;28;19912;-89
2022/05/02 16:34:52;;;;;;;;;;;20.90;57.90;;;;;;5088142;28;19912;-89
2022/05/02 16:37:21;;;;;;;;;;;20.70;59.00;;;;;;5085992;28;20401;-88
2022/05/02 16:39:49;;;;;;;;;;;20.50;57.90;;;;;;5085260;28;19917;-89
2022/05/02 16:42:15;;;;;;;;;;;20.30;58.70;;;;;;5076883;28;19922;-89
2022/05/02 16:44:42;;;;;;;;;;;20.10;61.70;;;;;;5061289;28;19995;-88
2022/05/02 16:47:07;;;;;;;;;;;20.00;64.40;;;;;;5074697;28;20333;-89
2022/05/02 16:49:39;;;;;;;;;;;19.90;70.20;;;;;;5085714;28;19915;-88
2022/05/02 16:52:05;;;;;;;;;;;19.70;70.10;;;;;;5080182;28;19965;-88
2022/05/02 16:54:31;;;;;;;;;;;19.50;70.00;;;;;;5070436;28;20003;-89
2022/05/02 16:56:57;;;;;;;;;;;19.30;69.70;;;;;;5078230;28;19920;-88
2022/05/02 16:59:23;;;;;;;;;;;19.20;71.30;;;;;;5075929;28;19939;-89
2022/05/02 17:01:49;;;;;;;;;;;19.10;73.10;;;;;;5067889;28;19912;-88
2022/05/02 17:04:17;;;;;;;;;;;19.00;75.00;;;;;;5068734;28;20354;-89
2022/05/02 17:06:45;;;;;;;;;;;19.00;76.20;;;;;;5082376;28;19920;-88
2022/05/02 17:09:12;;;;;;;;;;;19.00;77.10;;;;;;5080967;28;19916;-89
2022/05/02 17:11:39;;;;;;;;;;;19.00;76.70;;;;;;5074876;28;19938;-88
2022/05/02 17:14:05;;;;;;;;;;;18.90;75.00;;;;;;5075047;28;20413;-89
2022/05/02 17:16:32;;;;;;;;;;;18.80;76.10;;;;;;5079895;28;19912;-88
2022/05/02 17:19:02;;;;;;;;;;;18.90;76.90;;;;;;5075457;28;19934;-88
2022/05/02 17:40:38;;;;;;;;;;;19.00;76.70;;;;;;5100487;27;21655;-89
2022/05/02 17:43:14;;;;;;;;;;;19.20;71.80;;;;;;5088558;28;19912;-88